Time;durP1;ratioP1;P1;durP2;ratioP2;P2;SDS_P1;SDS_P2;PMS_P1;PMS_P2;Temp;Humidity;BMP_temperature;BMP_pressure;BME280_temperature;BME280_humidity;BME280_pressure;Samples;Min_cycle;Max_cycle;Signal;HPM_P1;HPM_P2
2022/01/09 00:00:36;;;;;;;25.35;13.40;;;;;;;3.90;100.00;98504.53;4976705;28;20030;-91
2022/01/09 00:03:03;;;;;;;27.38;16.08;;;;;;;4.01;100.00;98532.44;4977063;28;20441;-91
2022/01/09 00:05:30;;;;;;;26.63;17.13;;;;;;;4.33;100.00;98567.88;4976251;28;20037;-91
2022/01/09 00:07:57;;;;;;;25.30;16.00;;;;;;;4.20;100.00;98563.53;4961084;28;20034;-91
2022/01/09 00:10:26;;;;;;;21.90;11.68;;;;;;;4.08;100.00;98576.09;4977040;28;20030;-91
2022/01/09 00:12:53;;;;;;;10.13;5.70;;;;;;;4.43;100.00;98647.03;4977051;28;20522;-91
2022/01/09 00:15:20;;;;;;;8.25;4.88;;;;;;;3.92;100.00;98606.28;4961124;28;20026;-91
2022/01/09 00:17:47;;;;;;;8.00;4.32;;;;;;;3.76;100.00;98596.97;4976939;28;20034;-92
2022/01/09 00:20:28;;;;;;;9.20;4.35;;;;;;;4.35;100.00;98707.25;4977575;28;20081;-92
2022/01/09 00:22:57;;;;;;;5.95;3.47;;;;;;;3.84;100.00;98632.34;4977666;28;20448;-93
2022/01/09 00:25:27;;;;;;;9.45;4.00;;;;;;;4.29;100.00;98714.34;4976949;28;20089;-91
2022/01/09 00:27:55;;;;;;;9.35;4.07;;;;;;;3.69;100.00;98643.47;4977631;28;20494;-92
2022/01/09 00:30:23;;;;;;;7.85;3.90;;;;;;;4.49;100.00;98767.81;4976057;28;20027;-92
2022/01/09 00:32:52;;;;;;;18.33;3.95;;;;;;;3.73;100.00;98662.63;4977030;28;20442;-92
2022/01/09 00:35:27;;;;;;;19.90;3.47;;;;;;;3.75;100.00;98687.38;4977118;28;20030;-92
2022/01/09 00:38:02;;;;;;;16.85;3.92;;;;;;;4.13;100.00;98758.72;4961413;28;20380;-92
2022/01/09 00:40:37;;;;;;;20.33;4.18;;;;;;;3.64;100.00;98680.88;4977051;28;20034;-92
2022/01/09 00:43:09;;;;;;;22.45;4.35;;;;;;;3.74;100.00;98701.00;4976799;28;20050;-92
2022/01/09 00:45:43;;;;;;;30.98;4.75;;;;;;;3.72;100.00;98700.38;4976337;28;20121;-92
2022/01/09 00:48:15;;;;;;;37.05;5.50;;;;;;;3.58;100.00;98734.59;4976912;28;20403;-91
2022/01/09 00:50:47;;;;;;;;;;;;;;;4.39;100.00;98827.41;4977189;28;20034;-92
2022/01/09 00:53:15;;;;;;;37.40;5.47;;;;;;;4.29;100.00;98829.78;4976526;28;20263;-91
2022/01/09 00:56:03;;;;;;;34.55;5.95;;;;;;;3.51;100.00;98715.88;4961029;28;20026;-92
2022/01/09 00:58:31;;;;;;;31.15;4.72;;;;;;;3.48;100.00;98735.91;4976777;28;20037;-92
2022/01/09 01:00:59;;;;;;;39.22;5.38;;;;;;;3.78;100.00;98785.31;4960678;28;20117;-92
2022/01/09 01:03:30;;;;;;;35.35;5.90;;;;;;;3.92;100.00;98813.66;4977039;28;20464;-92
2022/01/09 01:05:57;;;;;;;39.78;5.97;;;;;;;3.64;100.00;98792.69;4977059;28;20117;-91
2022/01/09 01:08:30;;;;;;;35.88;5.95;;;;;;;3.90;100.00;98831.03;4976649;28;20031;-92
2022/01/09 01:11:03;;;;;;;39.97;5.82;;;;;;;3.79;100.00;98825.34;4975518;28;20026;-92
2022/01/09 01:13:29;;;;;;;;;;;;;;;4.20;100.00;98891.00;4976705;28;20475;-92
2022/01/09 01:15:56;;;;;;;28.52;4.18;;;;;;;3.92;100.00;98856.59;4976310;28;20354;-91
2022/01/09 01:18:21;;;;;;;37.13;5.50;;;;;;;3.39;100.00;98781.97;4963346;28;20121;-91
2022/01/09 01:20:53;;;;;;;35.92;5.47;;;;;;;3.37;100.00;98794.78;4997679;28;20110;-91
2022/01/09 01:23:18;;;;;;;40.10;5.43;;;;;;;3.28;100.00;98791.56;4964650;28;20026;-91
2022/01/09 01:25:51;;;;;;;36.55;5.43;;;;;;;4.03;100.00;98914.94;4964476;28;20293;-92
2022/01/09 01:28:17;;;;;;;36.03;5.22;;;;;;;3.42;100.00;98830.59;4981777;28;20034;-92
2022/01/09 01:30:43;;;;;;;32.25;5.05;;;;;;;3.51;100.00;98857.97;4981467;28;20019;-91
2022/01/09 01:33:08;;;;;;;35.58;5.82;;;;;;;3.97;100.00;98931.06;4969571;28;20164;-91
2022/01/09 01:35:34;;;;;;;32.80;5.97;;;;;;;3.80;100.00;98915.53;4949007;28;20062;-91
2022/01/09 01:37:59;;;;;;;31.67;5.53;;;;;;;3.66;100.00;98900.56;4964030;28;20057;-91
2022/01/09 01:40:25;;;;;;;42.03;6.03;;;;;;;3.26;100.00;98849.91;4979380;28;20410;-91
2022/01/09 01:42:51;;;;;;;50.85;6.63;;;;;;;3.50;100.00;98883.16;4979703;28;20026;-91
2022/01/09 01:45:16;;;;;;;52.30;6.97;;;;;;;3.66;100.00;98898.72;4978668;28;20042;-91
2022/01/09 01:47:42;;;;;;;47.90;6.55;;;;;;;3.86;100.00;98932.59;4979450;28;20092;-91
2022/01/09 01:50:11;;;;;;;34.75;6.05;;;;;;;3.87;100.00;98947.69;4963541;28;20480;-92
2022/01/09 01:52:44;;;;;;;37.45;6.90;;;;;;;3.33;100.00;98866.78;4979993;28;20034;-91
2022/01/09 01:55:13;;;;;;;42.35;5.78;;;;;;;4.10;100.00;99021.41;4979665;28;20022;-92
2022/01/09 01:57:42;;;;;;;31.92;5.55;;;;;;;3.84;100.00;98956.16;4963672;28;20089;-92
2022/01/09 02:00:14;;;;;;;38.65;6.43;;;;;;;3.38;100.00;98895.59;4979703;28;20041;-91
2022/01/09 02:02:39;;;;;;;48.88;7.95;;;;;;;3.40;100.00;98901.59;4979579;28;20547;-92
2022/01/09 02:05:06;;;;;;;43.17;6.45;;;;;;;3.52;100.00;98921.31;4963692;28;20134;-92
2022/01/09 02:07:32;;;;;;;51.05;7.07;;;;;;;3.92;100.00;98987.25;4979310;28;20037;-92
2022/01/09 02:09:59;;;;;;;52.33;8.35;;;;;;;3.97;100.00;98990.09;4979691;28;20035;-92
2022/01/09 02:12:26;;;;;;;54.47;8.93;;;;;;;4.03;100.00;99022.28;4979302;28;20112;-91
2022/01/09 02:14:53;;;;;;;59.38;8.27;;;;;;;3.74;100.00;98963.88;4979434;28;20021;-92
2022/01/09 02:17:23;;;;;;;52.72;7.68;;;;;;;3.55;100.00;98931.59;4979498;28;20141;-92
2022/01/09 02:19:56;;;;;;;42.42;7.35;;;;;;;3.61;100.00;98948.69;4979031;28;20030;-92
2022/01/09 02:22:31;;;;;;;48.72;7.88;;;;;;;3.99;100.00;99013.00;4996634;28;20502;-92
2022/01/09 02:24:57;;;;;;;61.40;9.93;;;;;;;4.04;100.00;99031.13;4979432;28;20040;-92
2022/01/09 02:27:28;;;;;;;48.33;7.72;;;;;;;4.34;100.00;99066.25;4996617;28;20031;-92
2022/01/09 02:29:54;;;;;;;47.25;7.53;;;;;;;3.49;100.00;98952.03;4962761;28;20492;-91
2022/01/09 02:32:20;;;;;;;44.75;8.95;;;;;;;3.85;100.00;99001.56;4978883;28;20033;-91
2022/01/09 02:34:50;;;;;;;49.95;8.43;;;;;;;3.61;100.00;98980.88;4962801;28;20026;-91
2022/01/09 02:37:18;;;;;;;49.70;8.13;;;;;;;4.31;100.00;99090.84;4978000;28;20089;-91
2022/01/09 02:39:44;;;;;;;47.92;6.82;;;;;;;4.05;100.00;99062.31;4963216;28;20053;-91
2022/01/09 02:42:25;;;;;;;49.50;7.22;;;;;;;3.61;100.00;98987.03;4978776;28;20026;-91
2022/01/09 02:44:52;;;;;;;43.10;6.63;;;;;;;4.32;100.00;99102.41;4978364;28;20060;-91
2022/01/09 02:47:19;;;;;;;43.42;6.32;;;;;;;3.74;100.00;99026.38;4979123;28;20038;-91
2022/01/09 02:49:49;;;;;;;36.83;6.07;;;;;;;4.15;100.00;99096.72;4978869;28;20519;-91
2022/01/09 02:52:33;;;;;;;47.92;6.75;;;;;;;3.57;100.00;98993.88;4962921;28;20042;-91
2022/01/09 02:55:11;;;;;;;37.00;5.88;;;;;;;3.56;100.00;99053.91;4978222;28;20022;-91
2022/01/09 02:57:40;;;;;;;37.88;5.88;;;;;;;3.54;100.00;99036.38;4978976;28;20088;-91
2022/01/09 03:00:09;;;;;;;31.00;5.18;;;;;;;3.53;100.00;99043.63;4978818;28;20030;-92
2022/01/09 03:02:35;;;;;;;31.20;5.65;;;;;;;3.94;100.00;99105.94;4978598;28;20034;-92
2022/01/09 03:05:04;;;;;;;36.30;5.82;;;;;;;3.58;100.00;99064.44;4978178;28;20080;-91
2022/01/09 03:07:30;;;;;;;35.45;5.70;;;;;;;3.74;100.00;99060.44;4962445;28;20062;-92
2022/01/09 03:09:57;;;;;;;33.70;4.88;;;;;;;3.52;100.00;99060.75;4946310;28;20447;-92
2022/01/09 03:12:29;;;;;;;37.08;5.10;;;;;;;3.83;100.00;99118.16;4961930;28;20030;-91
2022/01/09 03:14:54;;;;;;;33.47;4.75;;;;;;;3.48;100.00;99083.66;4962297;28;20125;-92
2022/01/09 03:17:20;;;;;;;29.30;4.85;;;;;;;3.41;100.00;99082.84;4977876;28;20022;-92
2022/01/09 03:19:48;;;;;;;31.63;4.97;;;;;;;3.91;100.00;99157.34;4977970;28;20045;-91
2022/01/09 03:22:17;;;;;;;29.40;5.20;;;;;;;3.61;100.00;99117.66;4978126;28;20033;-91
2022/01/09 03:24:42;;;;;;;37.92;5.28;;;;;;;3.85;100.00;99180.47;4961824;28;20041;-91
2022/01/09 03:27:09;;;;;;;27.85;4.38;;;;;;;3.79;100.00;99187.50;4977613;28;20022;-92
2022/01/09 03:29:38;;;;;;;30.42;5.00;;;;;;;3.44;100.00;99107.41;4977224;28;20117;-91
2022/01/09 03:32:05;;;;;;;32.28;4.68;;;;;;;4.11;100.00;99224.38;4977695;28;20068;-91
2022/01/09 03:34:31;;;;;;;31.02;5.20;;;;;;;3.48;100.00;99146.16;4977840;28;20068;-91
2022/01/09 03:36:56;;;;;;;31.45;4.70;;;;;;;4.11;100.00;99237.78;4961469;28;20063;-91
2022/01/09 03:39:22;;;;;;;27.70;4.63;;;;;;;3.45;100.00;99132.34;4945759;28;20036;-91
2022/01/09 03:41:47;;;;;;;29.92;4.60;;;;;;;4.06;100.00;99264.41;4961260;28;20026;-91
2022/01/09 03:44:12;;;;;;;22.98;4.60;;;;;;;3.66;100.00;99185.72;4945120;28;20050;-91
2022/01/09 03:46:38;;;;;;;23.50;4.22;;;;;;;4.04;100.00;99244.00;4976891;28;20030;-91
2022/01/09 03:49:07;;;;;;;29.08;4.60;;;;;;;3.36;100.00;99139.78;4961333;28;20046;-91
2022/01/09 03:51:36;;;;;;;26.33;4.47;;;;;;;3.43;100.00;99174.63;4977417;28;20026;-91
2022/01/09 03:54:03;;;;;;;29.25;4.38;;;;;;;3.66;100.00;99209.00;4977342;28;20056;-91
2022/01/09 03:56:28;;;;;;;24.83;4.35;;;;;;;3.46;100.00;99172.34;4977316;28;20137;-92
2022/01/09 03:58:54;;;;;;;28.38;3.90;;;;;;;3.34;100.00;99177.53;4977406;28;20499;-92
2022/01/09 04:01:19;;;;;;;26.77;4.53;;;;;;;3.43;100.00;99174.63;4994830;28;20068;-92
2022/01/09 04:03:45;;;;;;;27.52;4.22;;;;;;;3.92;100.00;99277.88;4976854;28;20033;-91
2022/01/09 04:06:13;;;;;;;26.33;4.10;;;;;;;3.76;100.00;99257.69;4977242;28;20034;-91
2022/01/09 04:08:39;;;;;;;26.40;4.07;;;;;;;3.53;100.00;99230.50;4961435;28;20058;-92
2022/01/09 04:11:08;;;;;;;21.85;3.75;;;;;;;3.34;100.00;99214.25;4961816;28;20135;-91
2022/01/09 04:13:34;;;;;;;19.00;3.58;;;;;;;3.96;100.00;99311.31;4977447;28;20034;-91
2022/01/09 04:15:59;;;;;;;25.35;3.90;;;;;;;3.31;100.00;99222.72;4994426;28;20022;-91
2022/01/09 04:18:28;;;;;;;28.08;4.15;;;;;;;3.67;100.00;99294.63;4960909;28;20403;-91
2022/01/09 04:20:54;;;;;;;26.02;4.15;;;;;;;3.87;100.00;99331.38;4977116;28;20486;-91
2022/01/09 04:23:21;;;;;;;22.35;4.00;;;;;;;3.40;100.00;99272.41;4976996;28;20077;-91
2022/01/09 04:25:47;;;;;;;17.75;3.33;;;;;;;3.86;100.00;99345.81;4969389;28;20030;-91
2022/01/09 04:28:16;;;;;;;19.42;3.17;;;;;;;3.54;100.00;99302.69;4985435;28;20023;-90
2022/01/09 04:30:52;;;;;;;25.48;4.10;;;;;;;3.79;100.00;99369.13;4977091;28;20388;-90
2022/01/09 04:33:17;;;;;;;21.95;4.35;;;;;;;3.11;100.00;99263.72;4945357;28;20495;-90
2022/01/09 04:35:43;;;;;;;24.50;3.60;;;;;;;3.15;100.00;99270.31;4960012;28;20040;-90
2022/01/09 04:38:09;;;;;;;15.90;3.08;;;;;;;3.24;100.00;99305.78;4976307;28;20022;-90
2022/01/09 04:40:35;;;;;;;20.83;3.45;;;;;;;3.54;100.00;99350.16;4993113;28;20045;-90
2022/01/09 04:43:03;;;;;;;26.90;4.10;;;;;;;3.67;100.00;99366.25;4976293;28;20049;-90
2022/01/09 04:45:31;;;;;;;22.67;3.38;;;;;;;3.18;100.00;99298.56;4975684;28;20137;-90
2022/01/09 04:48:03;;;;;;;15.50;3.17;;;;;;;3.09;100.00;99299.81;4993222;28;20073;-90
2022/01/09 04:50:34;;;;;;;18.85;3.42;;;;;;;3.49;100.00;99367.69;4975715;28;20080;-90
2022/01/09 04:53:05;;;;;;;19.60;3.67;;;;;;;3.46;100.00;99368.09;4975355;28;20038;-90
2022/01/09 04:55:33;;;;;;;22.85;3.58;;;;;;;3.02;100.00;99315.88;4993477;28;20110;-90
2022/01/09 04:57:59;;;;;;;25.02;3.53;;;;;;;3.26;100.00;99364.56;4975446;28;20499;-90
2022/01/09 05:00:24;;;;;;;24.77;3.25;;;;;;;3.66;100.00;99437.00;4993428;28;20035;-92
2022/01/09 05:02:53;;;;;;;25.77;3.95;;;;;;;3.24;100.00;99378.16;4976067;28;20034;-90
2022/01/09 05:05:22;;;;;;;21.27;3.50;;;;;;;3.68;100.00;99440.31;4959951;28;20080;-90
2022/01/09 05:07:53;;;;;;;24.30;4.22;;;;;;;3.22;100.00;99380.25;4976285;28;20109;-90
2022/01/09 05:10:19;;;;;;;17.48;3.40;;;;;;;3.45;100.00;99430.78;4976195;28;20491;-91
2022/01/09 05:12:47;;;;;;;25.27;3.90;;;;;;;3.05;100.00;99370.91;4993772;28;20069;-92
2022/01/09 05:15:14;;;;;;;19.58;3.95;;;;;;;3.07;100.00;99384.94;4976232;28;20014;-91
2022/01/09 05:17:42;;;;;;;22.05;3.15;;;;;;;3.16;100.00;99383.75;4976400;28;20072;-91
2022/01/09 05:20:08;;;;;;;26.13;3.55;;;;;;;3.14;100.00;99402.69;4944883;28;20550;-91
2022/01/09 05:22:38;;;;;;;20.30;3.33;;;;;;;3.08;100.00;99416.06;4943959;28;20049;-90
2022/01/09 05:25:06;;;;;;;18.38;3.55;;;;;;;2.81;100.00;99407.94;4960174;28;20118;-91
2022/01/09 05:27:36;;;;;;;20.63;3.83;;;;;;;2.68;100.00;99386.47;4975775;28;20037;-90
2022/01/09 05:30:05;;;;;;;20.85;3.70;;;;;;;3.01;100.00;99464.28;4959972;28;20033;-91
2022/01/09 05:32:30;;;;;;;27.02;4.43;;;;;;;3.27;100.00;99500.25;4975180;28;20034;-90
2022/01/09 05:34:56;;;;;;;25.85;4.18;;;;;;;2.73;100.00;99414.31;4993158;28;20022;-90
2022/01/09 05:37:21;;;;;;;20.00;3.33;;;;;;;3.32;100.00;99525.44;4975311;28;20026;-91
2022/01/09 05:39:47;;;;;;;27.45;4.03;;;;;;;2.55;100.00;99404.09;4992943;28;20483;-91
2022/01/09 05:42:13;;;;;;;23.13;3.95;;;;;;;2.71;100.00;99440.44;4959490;28;20034;-91
2022/01/09 05:44:39;;;;;;;19.80;3.60;;;;;;;2.28;100.00;99368.34;4959423;28;20054;-91
2022/01/09 05:47:07;;;;;;;28.55;4.63;;;;;;;2.39;100.00;99391.03;4959679;28;20048;-90
2022/01/09 05:49:33;;;;;;;29.02;4.70;;;;;;;2.59;100.00;99434.00;4975196;28;20033;-91
2022/01/09 05:51:59;;;;;;;26.52;4.55;;;;;;;3.28;100.00;99548.31;4959150;28;20039;-90
2022/01/09 05:54:25;;;;;;;22.70;4.30;;;;;;;2.44;100.00;99416.22;4993210;28;20049;-91
2022/01/09 05:56:51;;;;;;;25.25;4.38;;;;;;;3.27;100.00;99540.47;4993299;28;20030;-91
2022/01/09 05:59:18;;;;;;;24.35;4.18;;;;;;;2.32;100.00;99401.72;4976011;28;20033;-91
2022/01/09 06:01:44;;;;;;;20.40;3.70;;;;;;;2.48;100.00;99431.88;4975572;28;20022;-91
2022/01/09 06:04:10;;;;;;;24.63;4.63;;;;;;;2.97;100.00;99511.28;4976638;28;20045;-91
2022/01/09 06:06:35;;;;;;;28.50;4.53;;;;;;;3.22;100.00;99564.34;4978837;28;20464;-91
2022/01/09 06:09:02;;;;;;;27.83;4.18;;;;;;;3.16;100.00;99541.88;4963024;28;20042;-91
2022/01/09 06:11:27;;;;;;;27.52;4.22;;;;;;;2.80;100.00;99500.88;4947278;28;20035;-91
2022/01/09 06:14:00;;;;;;;25.98;4.30;;;;;;;3.18;100.00;99571.97;4963001;28;20041;-91
2022/01/09 06:16:28;;;;;;;24.23;4.35;;;;;;;2.55;100.00;99471.03;4979072;28;20022;-91
2022/01/09 06:18:57;;;;;;;27.05;3.60;;;;;;;2.80;100.00;99502.72;4947239;28;20033;-91
2022/01/09 06:21:27;;;;;;;26.58;3.90;;;;;;;3.23;100.00;99574.88;4979179;28;20391;-90
2022/01/09 06:23:54;;;;;;;22.40;3.85;;;;;;;2.75;100.00;99491.78;4962988;28;20439;-92
2022/01/09 06:26:22;;;;;;;25.02;3.65;;;;;;;2.49;100.00;99466.47;4979531;28;20029;-92
2022/01/09 06:28:51;;;;;;;21.95;4.07;;;;;;;2.53;100.00;99469.59;4979092;28;20027;-91
2022/01/09 06:31:19;;;;;;;23.20;3.70;;;;;;;2.56;100.00;99479.94;4978822;28;20094;-93
2022/01/09 06:33:48;;;;;;;23.65;3.60;;;;;;;2.49;100.00;99466.47;4979440;28;20034;-94
2022/01/09 06:36:20;;;;;;;20.45;3.97;;;;;;;3.04;100.00;99549.66;4979439;28;20476;-95
2022/01/09 06:38:49;;;;;;;22.52;3.75;;;;;;;2.56;100.00;99480.75;4979370;28;20121;-94
2022/01/09 06:41:14;;;;;;;18.73;3.42;;;;;;;2.65;100.00;99497.47;4978594;28;20033;-91
2022/01/09 06:57:54;;;;;;;21.92;3.13;;;;;;;2.57;100.00;99516.38;4914799;28;20373;-93
2022/01/09 07:00:25;;;;;;;22.00;3.58;;;;;;;2.67;100.00;99519.53;4944096;28;20035;-93
2022/01/09 07:02:51;;;;;;;21.50;4.07;;;;;;;2.57;100.00;99513.69;4959605;28;20057;-93
2022/01/09 07:05:20;;;;;;;18.73;3.50;;;;;;;2.59;100.00;99517.03;4959844;28;20027;-93
2022/01/09 07:07:58;;;;;;;16.52;3.17;;;;;;;2.58;100.00;99516.19;4960146;28;20022;-94
2022/01/09 07:10:36;;;;;;;20.88;3.40;;;;;;;2.43;100.00;99510.09;4944183;28;20047;-93
2022/01/09 07:13:05;;;;;;;12.15;2.88;;;;;;;2.95;100.00;99602.56;4959869;28;20030;-94
2022/01/09 07:15:32;;;;;;;21.35;3.47;;;;;;;2.49;100.00;99535.28;4959364;28;20019;-93
2022/01/09 07:18:07;;;;;;;26.58;3.45;;;;;;;2.76;100.00;99595.19;4959243;28;20062;-94
2022/01/09 07:20:52;;;;;;;;;;;;;;;;;;;;;
2022/01/09 07:23:29;;;;;;;23.63;3.35;;;;;;;2.58;100.00;99566.22;4976765;28;20032;-94
2022/01/09 07:25:57;;;;;;;23.10;3.53;;;;;;;2.67;100.00;99591.03;4959351;28;20042;-93
2022/01/09 07:28:26;;;;;;;23.67;3.70;;;;;;;2.37;100.00;99540.34;4943238;28;20031;-93
2022/01/09 07:30:55;;;;;;;17.35;3.45;;;;;;;2.31;100.00;99549.97;4959371;28;20030;-94
2022/01/09 07:33:32;;;;;;;19.88;3.60;;;;;;;2.26;100.00;99553.22;4943143;28;20053;-94
2022/01/09 07:36:26;;;;;;;18.63;3.70;;;;;;;2.18;100.00;99572.06;4960210;28;20077;-94
2022/01/09 07:38:52;;;;;;;21.27;3.40;;;;;;;2.17;100.00;99569.59;4959813;28;20492;-94
2022/01/09 07:41:50;;;;;;;19.85;3.30;;;;;;;2.26;100.00;99601.41;4960086;28;20039;-94
2022/01/09 07:47:39;;;;;;;18.60;3.30;;;;;;;2.66;100.00;99661.66;4969472;28;20092;-94
2022/01/09 07:57:13;;;;;;;16.10;3.60;;;;;;;2.76;100.00;99727.31;4889453;29;20568;-94
2022/01/09 07:59:42;;;;;;;16.60;3.10;;;;;;;2.02;100.00;99601.78;4928848;28;20096;-93
2022/01/09 08:02:10;;;;;;;16.85;2.95;;;;;;;2.02;100.00;99624.03;4962482;28;20038;-94
2022/01/09 08:04:52;;;;;;;10.45;2.47;;;;;;;2.75;100.00;99736.34;4978437;28;20050;-94
2022/01/09 08:08:17;;;;;;;10.73;2.73;;;;;;;2.74;100.00;99750.75;4978420;28;20045;-95
2022/01/09 08:10:59;;;;;;;15.95;2.92;;;;;;;1.91;100.00;99619.97;4948898;28;20265;-93
2022/01/09 08:13:28;;;;;;;15.88;3.22;;;;;;;1.85;100.00;99612.72;4977988;28;20022;-93
2022/01/09 08:16:16;;;;;;;14.50;2.80;;;;;;;1.98;100.00;99636.13;4978167;28;20022;-93
2022/01/09 08:18:52;;;;;;;18.23;3.00;;;;;;;2.26;100.00;99673.66;4963267;28;20026;-93
2022/01/09 08:21:20;;;;;;;13.43;2.42;;;;;;;2.50;100.00;99721.69;4977766;28;20049;-92
2022/01/09 08:23:49;;;;;;;14.18;2.78;;;;;;;2.06;100.00;99669.94;4976755;28;20038;-91
2022/01/09 08:26:18;;;;;;;13.95;3.28;;;;;;;2.06;100.00;99664.59;4943927;28;20438;-91
2022/01/09 08:28:47;;;;;;;11.57;2.83;;;;;;;2.08;100.00;99673.25;4976599;28;20484;-91
2022/01/09 08:31:14;;;;;;;16.15;3.13;;;;;;;2.54;100.00;99734.50;4976409;28;20088;-91
2022/01/09 08:33:40;;;;;;;23.80;3.45;;;;;;;2.16;100.00;99675.00;4977078;28;20018;-90
2022/01/09 08:36:05;;;;;;;15.88;3.20;;;;;;;2.28;100.00;99690.34;4960951;28;20026;-90
2022/01/09 08:38:31;;;;;;;18.65;2.95;;;;;;;2.16;100.00;99658.94;4976847;28;20116;-90
2022/01/09 08:40:56;;;;;;;19.58;2.90;;;;;;;2.28;100.00;99676.16;4976429;28;20030;-91
2022/01/09 08:43:23;;;;;;;14.55;2.88;;;;;;;2.91;100.00;99774.59;4976308;28;20549;-92
2022/01/09 08:45:49;;;;;;;19.88;3.80;;;;;;;2.30;100.00;99682.13;4976437;28;20061;-92
2022/01/09 08:48:18;;;;;;;20.92;3.45;;;;;;;2.68;100.00;99740.81;4977411;28;20058;-92
2022/01/09 08:50:44;;;;;;;15.75;3.10;;;;;;;2.53;100.00;99710.59;4976197;28;20041;-92
2022/01/09 08:53:09;;;;;;;18.25;3.38;;;;;;;2.70;100.00;99748.66;4976707;28;20029;-91
2022/01/09 08:55:38;;;;;;;20.60;3.70;;;;;;;2.74;100.00;99758.78;4976492;28;20041;-92
2022/01/09 08:58:03;;;;;;;20.38;3.38;;;;;;;2.32;100.00;99689.97;4977243;28;20026;-91
2022/01/09 09:00:29;;;;;;;21.58;3.47;;;;;;;2.61;100.00;99743.44;4976277;28;20031;-91
2022/01/09 09:02:54;;;;;;;17.90;3.42;;;;;;;2.67;100.00;99741.00;4960226;28;20038;-90
2022/01/09 09:05:20;;;;;;;16.83;3.03;;;;;;;3.14;100.00;99828.03;4976073;28;20439;-91
2022/01/09 09:07:46;;;;;;;19.95;3.45;;;;;;;2.75;100.00;99765.00;4993498;28;20027;-90
2022/01/09 09:10:13;;;;;;;19.75;3.50;;;;;;;3.09;100.00;99815.19;4959765;28;20023;-90
2022/01/09 09:12:41;;;;;;;26.75;3.78;;;;;;;2.79;100.00;99742.16;4960297;28;20057;-90
2022/01/09 09:15:11;;;;;;;23.20;4.10;;;;;;;2.77;100.00;99720.91;4976021;28;20027;-90
2022/01/09 09:17:37;;;;;;;25.20;3.95;;;;;;;2.79;100.00;99708.16;4976542;28;20031;-90
2022/01/09 09:20:04;;;;;;;18.42;3.30;;;;;;;3.21;100.00;99777.16;4975824;28;20019;-91
2022/01/09 09:22:30;;;;;;;19.20;3.40;;;;;;;3.53;100.00;99837.47;4943823;28;20035;-89
2022/01/09 09:24:56;;;;;;;22.83;3.90;;;;;;;2.91;100.00;99737.09;4959587;28;20052;-91
2022/01/09 09:27:22;;;;;;;16.00;3.20;;;;;;;2.85;100.00;99728.00;4959595;28;20030;-90
2022/01/09 09:29:47;;;;;;;22.08;3.78;;;;;;;2.93;100.00;99751.97;4943710;28;20032;-91
2022/01/09 09:32:16;;;;;;;18.15;3.40;;;;;;;2.86;100.00;99743.03;4975921;28;20031;-91
2022/01/09 09:34:44;;;;;;;14.98;3.47;;;;;;;3.02;100.00;99749.16;4992808;28;20575;-90
2022/01/09 09:37:10;;;;;;;17.00;3.65;;;;;;;3.03;100.00;99772.25;4975539;28;20037;-90
2022/01/09 09:39:35;;;;;;;16.75;3.47;;;;;;;2.95;100.00;99751.78;4947211;28;20026;-90
2022/01/09 09:42:01;;;;;;;18.60;3.85;;;;;;;2.97;100.00;99758.59;4963497;28;20026;-90
2022/01/09 09:44:27;;;;;;;16.83;3.20;;;;;;;3.14;100.00;99764.53;4963540;28;20030;-91
2022/01/09 09:46:53;;;;;;;22.52;3.63;;;;;;;3.74;100.00;99847.31;4979080;28;20089;-90
2022/01/09 09:49:22;;;;;;;20.17;4.20;;;;;;;3.97;100.00;99894.53;4979418;28;20464;-90
2022/01/09 09:51:48;;;;;;;19.15;3.60;;;;;;;3.66;100.00;99856.34;4979550;28;20030;-90
2022/01/09 09:54:13;;;;;;;19.48;3.03;;;;;;;3.21;100.00;99790.56;4979092;28;20037;-91
2022/01/09 09:56:44;;;;;;;17.98;3.40;;;;;;;3.89;100.00;99911.59;4978790;28;20057;-90
2022/01/09 09:59:10;;;;;;;19.45;3.65;;;;;;;3.48;100.00;99830.00;4963643;28;20034;-91
2022/01/09 10:01:36;;;;;;;16.48;3.20;;;;;;;3.03;100.00;99765.06;4978703;28;20022;-90
2022/01/09 10:04:08;;;;;;;16.92;3.42;;;;;;;3.19;100.00;99779.19;4996383;28;20033;-91
2022/01/09 10:06:45;;;;;;;19.90;3.53;;;;;;;3.63;100.00;99837.09;4978994;28;20018;-91
2022/01/09 10:09:19;;;;;;;20.23;4.05;;;;;;;3.57;100.00;99827.16;4978956;28;20030;-91
2022/01/09 10:11:48;;;;;;;24.33;4.30;;;;;;;3.90;100.00;99864.97;4978545;28;20109;-91
2022/01/09 10:14:20;;;;;;;17.98;3.42;;;;;;;3.97;100.00;99854.25;4978571;28;20117;-91
2022/01/09 10:17:06;;;;;;;19.38;4.22;;;;;;;4.46;100.00;99898.97;4995954;28;20018;-91
2022/01/09 10:19:40;;;;;;;21.42;4.00;;;;;;;4.49;100.00;99900.44;4968638;28;20062;-90
2022/01/09 10:22:06;;;;;;;20.73;4.07;;;;;;;4.40;100.00;99899.78;4979111;28;20118;-91
2022/01/09 10:24:32;;;;;;;26.52;4.22;;;;;;;4.17;100.00;99871.31;4962976;28;20117;-91
2022/01/09 10:27:00;;;;;;;22.83;3.97;;;;;;;3.73;100.00;99809.94;4962907;28;20472;-91
2022/01/09 10:29:30;;;;;;;23.40;3.95;;;;;;;4.28;100.00;99869.13;4979053;28;20062;-91
2022/01/09 10:31:56;;;;;;;18.48;3.67;;;;;;;3.97;100.00;99812.16;4979128;28;20026;-90
2022/01/09 10:34:22;;;;;;;18.25;3.25;;;;;;;4.15;100.00;99808.09;4979121;28;20026;-90
2022/01/09 10:36:55;;;;;;;18.55;3.63;;;;;;;4.24;100.00;99801.56;4962708;28;20015;-91
2022/01/09 10:39:32;;;;;;;19.90;3.65;;;;;;;4.71;100.00;99867.06;4961779;28;20511;-91
2022/01/09 10:42:00;;;;;;;22.15;3.95;;;;;;;4.29;100.00;99800.97;4978629;28;20033;-91
2022/01/09 10:44:33;;;;;;;22.88;3.75;;;;;;;4.30;100.00;99800.75;4977693;28;20034;-91
2022/01/09 10:47:20;;;;;;;18.15;3.50;;;;;;;4.74;100.00;99855.91;4995562;28;20055;-88
2022/01/09 10:49:49;;;;;;;21.05;3.30;;;;;;;5.34;97.75;99924.31;4967556;28;20478;-89
2022/01/09 10:52:27;;;;;;;20.42;4.53;;;;;;;4.61;97.97;99828.16;4977114;28;20035;-88
2022/01/09 10:55:03;;;;;;;22.85;4.05;;;;;;;4.87;98.59;99886.53;4977941;28;20092;-90
2022/01/09 10:57:37;;;;;;;19.63;3.97;;;;;;;4.52;99.52;99822.16;4977743;28;20049;-90
2022/01/09 11:00:14;;;;;;;22.48;3.78;;;;;;;4.86;96.12;99871.47;4977312;28;20420;-91
2022/01/09 11:02:40;;;;;;;21.27;3.75;;;;;;;5.13;97.37;99882.28;4962528;28;20038;-89
2022/01/09 11:05:07;;;;;;;17.88;3.50;;;;;;;5.49;96.28;99938.41;4978027;28;20034;-89
2022/01/09 11:07:33;;;;;;;18.38;4.13;;;;;;;5.53;96.34;99938.84;4978619;28;20030;-89
2022/01/09 11:10:06;;;;;;;14.95;3.13;;;;;;;5.41;94.33;99906.34;4978022;28;20431;-89
2022/01/09 11:12:45;;;;;;;17.08;4.50;;;;;;;5.40;93.85;99908.19;4963131;28;20507;-89
2022/01/09 11:15:21;;;;;;;19.58;3.40;;;;;;;4.78;94.19;99839.38;4977606;28;20026;-92
2022/01/09 11:17:58;;;;;;;17.38;2.72;;;;;;;5.23;94.50;99898.84;4978279;28;20500;-91
2022/01/09 11:20:35;;;;;;;19.17;3.42;;;;;;;4.80;93.75;99831.94;4978097;28;20038;-91
2022/01/09 11:23:06;;;;;;;18.77;3.40;;;;;;;5.42;92.79;99914.19;4963012;28;20034;-92
2022/01/09 11:26:11;;;;;;;17.33;3.25;;;;;;;5.67;93.20;99912.75;4978535;28;20014;-92
2022/01/09 11:28:48;;;;;;;11.55;2.75;;;;;;;5.41;91.94;99872.19;4960976;28;20057;-91
2022/01/09 11:31:37;;;;;;;17.58;3.00;;;;;;;5.50;92.21;99925.78;4981441;28;20092;-91
2022/01/09 11:34:34;;;;;;;16.58;3.25;;;;;;;5.35;93.35;99926.81;4978284;28;20391;-92
2022/01/09 11:37:25;;;;;;;15.30;2.97;;;;;;;5.53;93.75;99955.00;4978231;28;20030;-91
2022/01/09 11:39:51;;;;;;;13.05;2.90;;;;;;;5.10;93.13;99868.19;4977808;28;20399;-91
2022/01/09 11:42:19;;;;;;;15.25;3.35;;;;;;;5.86;91.28;99965.81;4977698;28;20383;-92
2022/01/09 11:44:53;;;;;;;11.90;3.25;;;;;;;6.17;89.87;99985.94;4977034;28;20157;-91
2022/01/09 11:47:21;;;;;;;19.60;3.45;;;;;;;6.05;88.61;99904.91;4977165;28;20431;-90
2022/01/09 11:49:53;;;;;;;14.60;2.90;;;;;;;6.82;88.47;99982.50;4982063;28;20050;-91
2022/01/09 11:52:20;;;;;;;18.27;3.50;;;;;;;7.52;85.75;99941.31;4977262;28;20034;-88
2022/01/09 11:54:59;;;;;;;16.25;3.22;;;;;;;8.79;80.08;99929.41;4976374;28;20455;-88
2022/01/09 11:57:35;;;;;;;15.07;3.30;;;;;;;10.04;76.13;99964.94;4976835;28;20026;-88
2022/01/09 12:00:05;;;;;;;15.90;3.28;;;;;;;10.93;72.69;99974.03;4976740;28;20034;-88
2022/01/09 12:02:37;;;;;;;19.25;3.50;;;;;;;10.99;70.03;99925.03;4960635;28;20065;-88